createdAt,value
2022-12-23T00:01:21.848Z,13.47
2022-12-23T00:03:49.729Z,13.43
2022-12-23T00:06:19.246Z,13.27
2022-12-23T00:08:47.423Z,10.80
2022-12-23T00:11:17.582Z,6.27
2022-12-23T00:14:03.407Z,8.30
2022-12-23T00:16:32.675Z,10.00
2022-12-23T00:19:00.519Z,7.23
2022-12-23T00:21:28.380Z,8.30
2022-12-23T00:23:56.168Z,8.57
2022-12-23T00:26:25.652Z,6.50
2022-12-23T00:28:53.897Z,6.43
2022-12-23T00:31:22.079Z,8.97
2022-12-23T00:33:54.278Z,6.67
2022-12-23T00:36:24.220Z,6.27
2022-12-23T00:39:10.229Z,5.30
2022-12-23T00:41:56.050Z,5.27
2022-12-23T00:44:24.217Z,6.13
2022-12-23T00:46:51.939Z,7.20
2022-12-23T00:49:39.294Z,5.00
2022-12-23T00:52:08.777Z,4.90
2022-12-23T00:54:36.873Z,4.73
2022-12-23T00:57:04.973Z,4.23
2022-12-23T00:59:32.719Z,5.87
2022-12-23T01:02:18.065Z,5.33
2022-12-23T01:05:04.614Z,4.43
2022-12-23T01:07:32.399Z,3.50
2022-12-23T01:10:00.146Z,3.33
2022-12-23T01:12:28.294Z,3.00
2022-12-23T01:14:56.081Z,3.33
2022-12-23T01:17:23.979Z,3.43
2022-12-23T01:19:53.166Z,3.00
2022-12-23T01:22:20.951Z,4.60
2022-12-23T01:24:48.752Z,3.27
2022-12-23T01:27:16.515Z,2.17
2022-12-23T01:29:44.219Z,2.47
2022-12-23T01:32:12.067Z,2.17
2022-12-23T01:34:39.874Z,1.63
2022-12-23T01:37:08.925Z,1.40
2022-12-23T01:39:36.721Z,1.47
2022-12-23T01:42:22.830Z,2.27
2022-12-23T01:44:55.051Z,1.27
2022-12-23T01:47:31.572Z,1.17
2022-12-23T01:50:06.761Z,2.50
2022-12-23T01:52:41.343Z,2.67
2022-12-23T01:55:10.293Z,1.27
2022-12-23T01:57:42.395Z,1.70
2022-12-23T02:00:28.746Z,1.40
2022-12-23T02:03:14.196Z,1.70
2022-12-23T02:05:43.861Z,2.50
2022-12-23T02:08:32.915Z,2.17
2022-12-23T02:11:19.915Z,2.30
2022-12-23T02:14:16.619Z,5.07
2022-12-23T02:16:54.537Z,2.50
2022-12-23T02:19:45.317Z,2.00
2022-12-23T02:22:37.828Z,1.90
2022-12-23T02:25:32.437Z,2.33
2022-12-23T02:28:18.772Z,1.80
2022-12-23T02:30:52.533Z,2.37
2022-12-23T02:33:31.637Z,2.87
2022-12-23T02:36:10.380Z,2.50
2022-12-23T02:38:49.111Z,3.27
2022-12-23T02:41:24.051Z,2.10
2022-12-23T02:43:58.813Z,1.50
2022-12-23T02:46:33.725Z,1.60
2022-12-23T02:49:08.319Z,2.37
2022-12-23T02:51:40.216Z,1.60
2022-12-23T02:54:12.422Z,2.93
2022-12-23T02:56:46.299Z,1.90
2022-12-23T02:59:18.701Z,3.10
2022-12-23T03:01:48.963Z,2.77
2022-12-23T03:04:16.831Z,2.97
2022-12-23T03:06:47.039Z,1.70
2022-12-23T03:09:21.873Z,4.13
2022-12-23T03:12:09.036Z,2.10
2022-12-23T03:14:59.171Z,2.60
2022-12-23T03:17:39.630Z,2.87
2022-12-23T03:20:14.749Z,3.23
2022-12-23T03:22:51.161Z,5.03
2022-12-23T03:25:24.344Z,5.23
2022-12-23T03:27:58.263Z,5.43
2022-12-23T03:30:26.531Z,4.17
2022-12-23T03:32:59.380Z,4.90
2022-12-23T03:35:33.543Z,4.47
2022-12-23T03:38:03.508Z,7.03
2022-12-23T03:40:36.806Z,5.57
2022-12-23T03:43:08.272Z,5.63
2022-12-23T03:45:42.264Z,7.53
2022-12-23T03:48:18.748Z,7.10
2022-12-23T03:50:48.982Z,9.27
2022-12-23T03:53:23.405Z,5.77
2022-12-23T03:55:57.232Z,6.83
2022-12-23T03:58:35.092Z,7.60
2022-12-23T04:01:11.830Z,9.27
2022-12-23T04:03:50.842Z,9.43
2022-12-23T04:06:21.937Z,8.17
2022-12-23T04:08:51.071Z,14.10
2022-12-23T04:11:19.323Z,9.87
2022-12-23T04:13:49.043Z,12.53
2022-12-23T04:16:17.509Z,14.20
2022-12-23T04:18:47.839Z,12.80
2022-12-23T04:21:15.622Z,15.40
2022-12-23T04:23:43.490Z,14.30
2022-12-23T04:26:11.281Z,15.00
2022-12-23T04:28:38.976Z,12.83
2022-12-23T04:31:06.809Z,15.23
2022-12-23T04:33:34.632Z,16.53
2022-12-23T04:36:03.847Z,16.60
2022-12-23T04:38:31.674Z,16.77
2022-12-23T04:40:59.459Z,13.87
2022-12-23T04:43:27.265Z,18.43
2022-12-23T04:45:55.060Z,18.63
2022-12-23T04:48:22.952Z,15.27
2022-12-23T04:50:50.725Z,16.50
2022-12-23T04:53:19.842Z,16.43
2022-12-23T04:55:51.310Z,12.83
2022-12-23T04:58:22.060Z,17.47
2022-12-23T05:00:50.123Z,15.80
2022-12-23T05:03:18.328Z,13.67
2022-12-23T05:05:46.370Z,12.80
2022-12-23T05:08:14.126Z,15.60
2022-12-23T05:10:43.286Z,14.10
2022-12-23T05:13:11.184Z,13.07
2022-12-23T05:15:38.930Z,14.33
2022-12-23T05:18:06.820Z,11.37
2022-12-23T05:20:34.938Z,13.83
2022-12-23T05:23:02.667Z,12.27
2022-12-23T05:25:30.736Z,9.70
2022-12-23T05:27:59.900Z,11.40
2022-12-23T05:30:27.768Z,12.10
2022-12-23T05:32:56.179Z,10.60
2022-12-23T05:35:25.094Z,11.67
2022-12-23T05:37:53.135Z,13.33
2022-12-23T05:40:24.660Z,12.80
2022-12-23T05:42:53.024Z,10.87
2022-12-23T05:45:22.416Z,9.50
2022-12-23T05:47:50.261Z,9.80
2022-12-23T05:50:18.142Z,8.03
2022-12-23T05:52:45.941Z,8.43
2022-12-23T05:55:13.688Z,9.40
2022-12-23T05:57:41.529Z,10.17
2022-12-23T06:00:11.163Z,9.53
2022-12-23T06:02:40.475Z,8.07
2022-12-23T06:05:09.240Z,7.80
2022-12-23T06:07:37.290Z,8.17
2022-12-23T06:10:06.002Z,6.67
2022-12-23T06:12:33.850Z,7.23
2022-12-23T06:15:01.711Z,6.13
2022-12-23T06:17:29.511Z,7.13
2022-12-23T06:19:58.657Z,6.70
2022-12-23T06:22:26.555Z,7.57
2022-12-23T06:24:54.294Z,7.07
2022-12-23T06:27:22.036Z,6.00
2022-12-23T06:29:49.859Z,5.43
2022-12-23T06:32:17.648Z,6.00
2022-12-23T06:34:50.175Z,6.73
2022-12-23T06:37:19.285Z,6.67
2022-12-23T06:39:47.028Z,4.73
2022-12-23T06:42:14.820Z,6.57
2022-12-23T06:44:42.746Z,8.63
2022-12-23T06:47:10.573Z,5.23
2022-12-23T06:49:38.383Z,4.80
2022-12-23T06:52:06.358Z,4.63
2022-12-23T06:54:35.439Z,5.53
2022-12-23T06:57:03.172Z,4.60
2022-12-23T06:59:31.506Z,4.50
2022-12-23T07:01:59.421Z,3.80
2022-12-23T07:04:27.372Z,3.40
2022-12-23T07:06:55.248Z,5.27
2022-12-23T07:09:23.052Z,3.30
2022-12-23T07:11:52.180Z,5.63
2022-12-23T07:14:19.950Z,4.23
2022-12-23T07:16:48.182Z,3.17
2022-12-23T07:19:16.093Z,5.83
2022-12-23T07:21:43.869Z,3.37
2022-12-23T07:24:11.963Z,2.63
2022-12-23T07:26:39.792Z,3.67
2022-12-23T07:29:08.960Z,4.40
2022-12-23T07:31:40.780Z,4.93
2022-12-23T07:34:10.757Z,5.53
2022-12-23T07:36:38.577Z,8.83
2022-12-23T07:39:06.499Z,8.40
2022-12-23T07:41:34.305Z,8.20
2022-12-23T07:44:02.122Z,5.53
2022-12-23T07:46:31.329Z,5.10
2022-12-23T07:48:59.242Z,7.03
2022-12-23T07:51:27.002Z,4.87
2022-12-23T07:53:54.819Z,4.77
2022-12-23T07:56:22.647Z,5.77
2022-12-23T07:58:50.859Z,5.53
2022-12-23T08:01:19.675Z,4.37
2022-12-23T08:03:48.975Z,5.47
2022-12-23T08:06:17.419Z,4.30
2022-12-23T08:08:47.172Z,4.90
2022-12-23T08:11:16.638Z,5.30
2022-12-23T08:13:46.265Z,5.73
2022-12-23T08:16:14.127Z,5.70
2022-12-23T08:18:43.144Z,4.90
2022-12-23T08:21:15.669Z,4.83
2022-12-23T08:23:43.935Z,5.87
2022-12-23T08:26:14.386Z,5.17
2022-12-23T08:28:43.525Z,6.20
2022-12-23T08:31:14.014Z,8.63
2022-12-23T08:33:44.147Z,6.20
2022-12-23T08:36:19.206Z,6.07
2022-12-23T08:38:50.820Z,6.33
2022-12-23T08:41:21.375Z,6.07
2022-12-23T08:43:49.317Z,5.93
2022-12-23T08:46:17.255Z,6.53
2022-12-23T08:48:49.483Z,9.77
2022-12-23T08:51:21.648Z,8.00
2022-12-23T08:53:54.813Z,6.73
2022-12-23T08:56:26.272Z,10.03
2022-12-23T08:58:55.615Z,6.57
2022-12-23T09:01:25.821Z,5.73
2022-12-23T09:03:54.454Z,6.87
2022-12-23T09:06:29.680Z,5.60
2022-12-23T09:08:58.317Z,8.27
2022-12-23T09:11:27.876Z,6.93
2022-12-23T09:13:56.551Z,6.03
2022-12-23T09:16:24.675Z,5.93
2022-12-23T09:18:52.509Z,6.17
2022-12-23T09:21:21.984Z,9.53
2022-12-23T09:23:51.343Z,7.10
2022-12-23T09:26:21.454Z,8.30
2022-12-23T09:28:49.325Z,6.07
2022-12-23T09:31:17.809Z,9.43
2022-12-23T09:33:47.970Z,5.93
2022-12-23T09:36:16.067Z,6.13
2022-12-23T09:38:44.280Z,8.77
2022-12-23T09:41:24.133Z,6.07
2022-12-23T09:43:59.930Z,7.50
2022-12-23T09:46:30.836Z,6.13
2022-12-23T09:49:03.305Z,7.73
2022-12-23T09:51:32.301Z,5.93
2022-12-23T09:54:04.586Z,6.03
2022-12-23T09:56:41.231Z,6.73
2022-12-23T09:59:24.838Z,6.97
2022-12-23T10:01:59.172Z,7.07
2022-12-23T10:04:42.859Z,5.93
2022-12-23T10:07:32.302Z,7.73
2022-12-23T10:10:07.286Z,8.47
2022-12-23T10:12:41.754Z,6.10
2022-12-23T10:15:22.361Z,8.40
2022-12-23T10:17:54.141Z,6.10
2022-12-23T10:20:32.451Z,5.23
2022-12-23T10:23:00.975Z,6.07
2022-12-23T10:25:34.472Z,7.90
2022-12-23T10:28:04.959Z,6.40
2022-12-23T10:33:37.549Z,6.20
2022-12-23T10:36:14.567Z,5.57
2022-12-23T10:38:52.798Z,6.90
2022-12-23T10:41:29.859Z,5.47
2022-12-23T10:44:27.195Z,6.80
2022-12-23T10:47:06.589Z,6.63
2022-12-23T10:49:43.318Z,7.77
2022-12-23T10:52:16.427Z,10.47
2022-12-23T10:54:46.436Z,8.80
2022-12-23T10:57:16.190Z,7.70
2022-12-23T10:59:45.572Z,7.43
2022-12-23T11:02:33.101Z,6.50
2022-12-23T11:05:01.032Z,5.70
2022-12-23T11:07:46.486Z,8.50
2022-12-23T11:10:18.763Z,5.03
2022-12-23T11:12:49.397Z,4.60
2022-12-23T11:15:31.633Z,5.27
2022-12-23T11:18:08.063Z,7.67
2022-12-23T11:20:37.534Z,5.77
2022-12-23T11:23:07.386Z,3.77
2022-12-23T11:25:38.157Z,7.20
2022-12-23T11:28:16.207Z,6.20
2022-12-23T11:30:56.553Z,6.13
2022-12-23T11:33:27.569Z,5.77
2022-12-23T11:36:04.520Z,6.87
2022-12-23T11:38:33.095Z,5.27
2022-12-23T11:41:01.801Z,7.03
2022-12-23T11:43:30.256Z,9.57
2022-12-23T11:46:26.369Z,8.83
2022-12-23T11:49:06.933Z,9.87
2022-12-23T11:51:34.919Z,7.63
2022-12-23T11:54:03.938Z,5.57
2022-12-23T11:56:38.589Z,6.47
2022-12-23T11:59:09.894Z,7.00
2022-12-23T12:01:40.231Z,10.13
2022-12-23T12:04:15.725Z,5.70
2022-12-23T12:06:48.443Z,6.20
2022-12-23T12:09:21.932Z,6.43
2022-12-23T12:11:52.319Z,8.57
2022-12-23T12:14:26.210Z,8.30
2022-12-23T12:17:01.672Z,8.53
2022-12-23T12:19:34.462Z,10.70
2022-12-23T12:22:07.087Z,6.57
2022-12-23T12:24:39.963Z,8.30
2022-12-23T12:27:11.291Z,5.60
2022-12-23T12:29:44.692Z,5.77
2022-12-23T12:32:21.800Z,8.87
2022-12-23T12:34:55.736Z,5.87
2022-12-23T12:37:33.857Z,5.47
2022-12-23T12:40:04.067Z,6.67
2022-12-23T12:42:39.159Z,9.07
2022-12-23T12:45:18.300Z,6.10
2022-12-23T12:48:05.977Z,5.30
2022-12-23T12:50:45.586Z,8.90
2022-12-23T12:53:19.840Z,5.90
2022-12-23T12:55:51.846Z,6.87
2022-12-23T12:58:22.859Z,5.90
2022-12-23T13:01:03.644Z,7.40
2022-12-23T13:04:05.649Z,4.80
2022-12-23T13:06:40.778Z,7.57
2022-12-23T13:09:21.262Z,7.57
2022-12-23T13:11:56.205Z,7.00
2022-12-23T13:14:35.239Z,5.97
2022-12-23T13:17:09.561Z,5.20
2022-12-23T13:19:47.545Z,5.73
2022-12-23T13:22:18.520Z,5.17
2022-12-23T13:25:00.215Z,10.60
2022-12-23T13:27:32.741Z,7.20
2022-12-23T13:30:13.135Z,7.43
2022-12-23T13:33:05.067Z,6.80
2022-12-23T13:35:49.876Z,7.10
2022-12-23T13:38:31.539Z,9.93
2022-12-23T13:41:05.795Z,7.47
2022-12-23T13:43:42.714Z,8.13
2022-12-23T13:46:19.603Z,8.53
2022-12-23T13:48:58.572Z,9.13
2022-12-23T13:51:34.140Z,8.00
2022-12-23T13:54:12.285Z,7.47
2022-12-23T13:56:44.004Z,7.60
2022-12-23T13:59:15.533Z,8.20
2022-12-23T14:01:48.523Z,7.77
2022-12-23T14:04:59.324Z,7.33
2022-12-23T14:07:31.668Z,7.73
2022-12-23T14:10:10.204Z,11.50
2022-12-23T14:12:40.763Z,9.50
2022-12-23T14:15:36.605Z,12.23
2022-12-23T14:18:18.986Z,10.63
2022-12-23T14:20:52.173Z,9.80
2022-12-23T14:23:34.299Z,10.43
2022-12-23T14:26:20.159Z,12.50
2022-12-23T14:29:03.043Z,9.77
2022-12-23T14:31:36.421Z,11.37
2022-12-23T14:34:07.265Z,11.73
2022-12-23T14:36:35.321Z,11.13
2022-12-23T14:39:31.962Z,9.87
2022-12-23T14:42:06.007Z,9.70
2022-12-23T14:44:50.364Z,14.30
2022-12-23T14:47:34.444Z,12.17
2022-12-23T14:50:38.355Z,11.53
2022-12-23T14:53:21.827Z,12.33
2022-12-23T14:55:53.608Z,9.93
2022-12-23T14:58:51.297Z,11.53
2022-12-23T15:01:22.612Z,47.10
2022-12-23T15:03:59.227Z,12.83
2022-12-23T15:06:36.506Z,11.67
2022-12-23T15:09:07.565Z,21.07
2022-12-23T15:11:37.571Z,15.63
2022-12-23T15:14:10.294Z,13.40
2022-12-23T15:16:40.376Z,33.73
2022-12-23T15:19:22.530Z,16.87
2022-12-23T15:21:59.608Z,19.43
2022-12-23T15:24:33.251Z,17.63
2022-12-23T15:27:25.411Z,9.53
2022-12-23T15:29:53.136Z,7.63
2022-12-23T15:32:24.280Z,7.50
2022-12-23T15:34:53.732Z,3.80
2022-12-23T15:37:28.865Z,4.67
2022-12-23T15:40:04.821Z,6.93
2022-12-23T15:42:39.239Z,5.60
2022-12-23T15:45:36.218Z,3.87
2022-12-23T15:48:06.570Z,3.20
2022-12-23T15:50:41.853Z,3.57
2022-12-23T15:53:11.741Z,3.33
2022-12-23T15:55:41.402Z,3.90
2022-12-23T15:58:19.679Z,3.83
2022-12-23T16:00:56.331Z,4.90
2022-12-23T16:03:29.513Z,5.00
2022-12-23T16:06:11.238Z,6.50
2022-12-23T16:08:39.872Z,7.03
2022-12-23T16:11:14.925Z,8.30
2022-12-23T16:13:58.524Z,8.80
2022-12-23T16:16:38.360Z,9.57
2022-12-23T16:19:06.535Z,11.17
2022-12-23T16:21:37.573Z,9.60
2022-12-23T16:24:09.794Z,9.73
2022-12-23T16:26:41.454Z,10.87
2022-12-23T16:29:12.471Z,13.53
2022-12-23T16:31:45.728Z,11.10
2022-12-23T16:34:19.103Z,11.97
2022-12-23T16:36:46.976Z,12.97
2022-12-23T16:39:21.465Z,14.33
2022-12-23T16:41:49.768Z,13.17
2022-12-23T16:44:18.962Z,16.00
2022-12-23T16:46:50.594Z,17.23
2022-12-23T16:49:20.976Z,14.23
2022-12-23T16:51:49.753Z,15.80
2022-12-23T16:54:21.454Z,16.43
2022-12-23T16:56:50.092Z,18.03
2022-12-23T16:59:19.835Z,13.20
2022-12-23T17:01:49.543Z,13.50
2022-12-23T17:04:17.543Z,14.90
2022-12-23T17:06:46.553Z,13.50
2022-12-23T17:09:14.611Z,12.87
2022-12-23T17:11:44.649Z,14.30
2022-12-23T17:14:17.273Z,15.77
2022-12-23T17:16:47.954Z,15.77
2022-12-23T17:19:20.515Z,18.90
2022-12-23T17:21:56.529Z,17.30
2022-12-23T17:24:26.060Z,17.17
2022-12-23T17:26:56.677Z,17.70
2022-12-23T17:29:24.865Z,17.87
2022-12-23T17:31:54.305Z,16.93
2022-12-23T17:34:24.509Z,17.63
2022-12-23T17:36:53.198Z,16.97
2022-12-23T17:39:22.146Z,13.33
2022-12-23T17:41:49.993Z,11.47
2022-12-23T17:44:18.772Z,12.80
2022-12-23T17:46:47.562Z,11.83
2022-12-23T17:49:16.843Z,7.63
2022-12-23T17:51:45.048Z,7.43
2022-12-23T17:54:22.964Z,9.87
2022-12-23T17:56:51.374Z,6.77
2022-12-23T17:59:19.493Z,5.73
2022-12-23T18:01:47.441Z,5.33
2022-12-23T18:04:19.459Z,5.50
2022-12-23T18:06:47.426Z,4.93
2022-12-23T18:09:15.401Z,5.30
2022-12-23T18:11:46.617Z,4.17
2022-12-23T18:14:18.732Z,2.93
2022-12-23T18:16:47.107Z,2.77
2022-12-23T18:19:21.300Z,3.27
2022-12-23T18:21:49.824Z,2.63
2022-12-23T18:24:18.733Z,2.70
2022-12-23T18:26:47.562Z,3.30
2022-12-23T18:29:18.650Z,4.27
2022-12-23T18:31:51.915Z,3.10
2022-12-23T18:34:22.085Z,3.10
2022-12-23T18:36:51.928Z,2.30
2022-12-23T18:39:20.145Z,3.60
2022-12-23T18:41:48.181Z,2.00
2022-12-23T18:44:20.037Z,2.97
2022-12-23T18:46:48.221Z,2.00
2022-12-23T18:49:16.245Z,2.73
2022-12-23T18:51:45.712Z,2.97
2022-12-23T18:54:15.334Z,2.37
2022-12-23T18:56:43.175Z,3.60
2022-12-23T18:59:17.010Z,1.63
2022-12-23T19:01:45.057Z,2.20
2022-12-23T19:04:13.327Z,3.20
2022-12-23T19:06:41.947Z,2.70
2022-12-23T19:09:15.348Z,4.20
2022-12-23T19:11:43.396Z,2.53
2022-12-23T19:14:13.094Z,1.60
2022-12-23T19:16:47.579Z,2.83
2022-12-23T19:19:19.040Z,1.93
2022-12-23T19:21:47.215Z,4.40
2022-12-23T19:24:16.819Z,3.37
2022-12-23T19:26:44.754Z,2.67
2022-12-23T19:29:12.762Z,2.80
2022-12-23T19:31:41.309Z,8.57
2022-12-23T19:34:14.543Z,5.10
2022-12-23T19:36:43.549Z,5.47
2022-12-23T19:39:16.096Z,5.47
2022-12-23T19:41:45.841Z,3.43
2022-12-23T19:44:13.888Z,4.43
2022-12-23T19:46:42.239Z,7.43
2022-12-23T19:49:15.712Z,8.83
2022-12-23T19:51:47.208Z,10.07
2022-12-23T19:54:15.134Z,6.73
2022-12-23T19:56:43.083Z,7.63
2022-12-23T19:59:12.456Z,8.00
2022-12-23T20:01:40.256Z,9.27
2022-12-23T20:04:08.136Z,9.90
2022-12-23T20:06:38.309Z,7.43
2022-12-23T20:09:07.796Z,6.40
2022-12-23T20:11:37.885Z,7.90
2022-12-23T20:14:06.650Z,9.57
2022-12-23T20:16:37.100Z,9.40
2022-12-23T20:19:05.657Z,7.30
2022-12-23T20:21:34.128Z,5.60
2022-12-23T20:24:02.756Z,8.67
2022-12-23T20:26:31.278Z,6.90
2022-12-23T20:28:59.487Z,9.13
2022-12-23T20:31:29.266Z,8.87
2022-12-23T20:33:59.990Z,8.33
2022-12-23T20:36:30.711Z,10.20
2022-12-23T20:38:59.306Z,8.90
2022-12-23T20:41:30.259Z,7.47
2022-12-23T20:46:46.696Z,12.77
2022-12-23T20:49:15.968Z,7.77
2022-12-23T20:51:43.750Z,7.27
2022-12-23T20:54:11.558Z,5.57
2022-12-23T20:56:39.537Z,9.23
2022-12-23T20:59:07.748Z,6.63
2022-12-23T21:01:37.936Z,4.37
2022-12-23T21:04:08.190Z,9.53
2022-12-23T21:06:38.033Z,7.47
2022-12-23T21:09:07.742Z,5.87
2022-12-23T21:11:38.739Z,6.37
2022-12-23T21:14:07.729Z,6.30
2022-12-23T21:16:37.652Z,6.37
2022-12-23T21:19:06.317Z,6.77
2022-12-23T21:21:34.340Z,8.73
2022-12-23T21:24:05.169Z,7.37
2022-12-23T21:26:34.948Z,8.37
2022-12-23T21:29:05.505Z,9.97
2022-12-23T21:31:35.710Z,9.00
2022-12-23T21:34:04.395Z,7.27
2022-12-23T21:36:33.770Z,8.90
2022-12-23T21:39:03.475Z,6.60
2022-12-23T21:41:34.972Z,4.87
2022-12-23T21:44:03.635Z,6.77
2022-12-23T21:46:31.554Z,6.60
2022-12-23T21:49:00.099Z,10.87
2022-12-23T21:51:36.897Z,6.93
2022-12-23T21:54:09.433Z,8.10
2022-12-23T21:56:37.432Z,7.37
2022-12-23T21:59:07.594Z,8.03
2022-12-23T22:01:35.668Z,6.20
2022-12-23T22:04:04.347Z,8.23
2022-12-23T22:06:34.194Z,6.20
2022-12-23T22:09:02.057Z,9.20
2022-12-23T22:11:33.442Z,6.27
2022-12-23T22:14:02.577Z,7.83
2022-12-23T22:16:31.645Z,7.27
2022-12-23T22:19:01.437Z,9.03
2022-12-23T22:21:31.168Z,8.10
2022-12-23T22:23:59.238Z,10.87
2022-12-23T22:26:28.878Z,7.10
2022-12-23T22:29:00.782Z,6.63
2022-12-23T22:31:32.867Z,9.90
2022-12-23T22:34:00.836Z,6.67
2022-12-23T22:36:28.756Z,5.67
2022-12-23T22:39:01.736Z,5.67
2022-12-23T22:41:31.119Z,9.73
2022-12-23T22:44:01.176Z,9.37
2022-12-23T22:46:29.449Z,10.33
2022-12-23T22:48:58.872Z,10.47
2022-12-23T22:51:29.347Z,10.33
2022-12-23T22:53:57.784Z,6.97
2022-12-23T22:56:26.860Z,6.63
2022-12-23T22:58:54.960Z,8.37
2022-12-23T23:01:26.010Z,6.70
2022-12-23T23:03:57.314Z,7.40
2022-12-23T23:06:26.810Z,10.10
2022-12-23T23:08:54.913Z,8.73
2022-12-23T23:11:23.369Z,7.83
2022-12-23T23:13:51.571Z,8.40
2022-12-23T23:16:19.640Z,10.10
2022-12-23T23:18:48.882Z,7.27
2022-12-23T23:21:16.971Z,9.23
2022-12-23T23:23:44.961Z,9.37
2022-12-23T23:26:14.024Z,9.47
2022-12-23T23:28:42.295Z,8.87
2022-12-23T23:31:40.689Z,9.57
2022-12-23T23:34:00.006Z,8.40
2022-12-23T23:36:27.863Z,9.33
2022-12-23T23:38:55.744Z,5.40
2022-12-23T23:41:24.367Z,5.90
2022-12-23T23:43:52.771Z,11.53
2022-12-23T23:46:20.975Z,10.17
2022-12-23T23:48:48.797Z,9.23
2022-12-23T23:51:17.903Z,7.13
2022-12-23T23:53:45.772Z,8.50
2022-12-23T23:56:13.587Z,8.27
2022-12-23T23:58:41.398Z,6.77
